Hazelgreen, West Virginia
Current Conditions -  °F | °C
As of 3:04 PM on Wednesday 26 Nov 2014 (Local Time) from KPKB Reporting Station
Overcast Overcast  
Wind Chill: 38°   Ceiling: 1000
Heat Index: 38°   Visibility: 8mi
Dew Point: 33°   Wind: 3mph
Humidity: 83%   Direction: 360°N
Pressure: 30.03"   Gusts: NA
Location:  39.1565°N, 81.0304°W
Report Text: KPKB 262004Z 36003KT 8SM OVC010 03/01 A3003 RMK AO2 T00330006
Loading
Personal Weather Stations






























Interactive Weather Map New forecast layout! Learn more

10-Day Weather Forecast

Advertisements
Track Severe Weather on mobile